sensor_id;sensor_type;location;lat;lon;timestamp;temperature;humidity
21849;DHT22;11089;49.852;19.700;2023-10-19T00:00:11;2.90;1.00
21849;DHT22;11089;49.852;19.700;2023-10-19T00:03:22;2.80;99.90
21849;DHT22;11089;49.852;19.700;2023-10-19T00:06:24;2.80;1.00
21849;DHT22;11089;49.852;19.700;2023-10-19T00:09:25;2.90;99.90
21849;DHT22;11089;49.852;19.700;2023-10-19T00:12:26;2.80;99.90
21849;DHT22;11089;49.852;19.700;2023-10-19T00:15:28;2.80;1.00
21849;DHT22;11089;49.852;19.700;2023-10-19T00:18:32;2.90;1.00
21849;DHT22;11089;49.852;19.700;2023-10-19T00:21:35;3.00;99.90
21849;DHT22;11089;49.852;19.700;2023-10-19T00:24:51;3.00;1.00
21849;DHT22;11089;49.852;19.700;2023-10-19T00:27:52;3.00;1.00
21849;DHT22;11089;49.852;19.700;2023-10-19T00:30:53;3.10;1.00
21849;DHT22;11089;49.852;19.700;2023-10-19T00:34:00;3.20;1.00
21849;DHT22;11089;49.852;19.700;2023-10-19T00:37:01;3.10;1.00
21849;DHT22;11089;49.852;19.700;2023-10-19T00:40:11;3.00;1.00
21849;DHT22;11089;49.852;19.700;2023-10-19T00:43:29;3.10;99.90
21849;DHT22;11089;49.852;19.700;2023-10-19T00:46:34;3.10;1.00
21849;DHT22;11089;49.852;19.700;2023-10-19T00:49:47;3.00;1.00
21849;DHT22;11089;49.852;19.700;2023-10-19T00:52:49;3.10;1.00
21849;DHT22;11089;49.852;19.700;2023-10-19T00:55:50;3.10;1.00
21849;DHT22;11089;49.852;19.700;2023-10-19T00:58:53;3.10;1.00
21849;DHT22;11089;49.852;19.700;2023-10-19T01:02:00;3.10;1.00
21849;DHT22;11089;49.852;19.700;2023-10-19T01:05:15;3.10;1.00
21849;DHT22;11089;49.852;19.700;2023-10-19T01:08:22;3.10;99.90
21849;DHT22;11089;49.852;19.700;2023-10-19T01:11:31;3.10;99.90
21849;DHT22;11089;49.852;19.700;2023-10-19T01:14:35;3.10;99.90
21849;DHT22;11089;49.852;19.700;2023-10-19T01:17:37;3.10;1.00
21849;DHT22;11089;49.852;19.700;2023-10-19T01:20:39;3.10;1.00
21849;DHT22;11089;49.852;19.700;2023-10-19T01:23:52;3.10;99.90
21849;DHT22;11089;49.852;19.700;2023-10-19T01:26:53;3.20;1.00
21849;DHT22;11089;49.852;19.700;2023-10-19T01:29:54;3.10;99.90
21849;DHT22;11089;49.852;19.700;2023-10-19T01:33:00;3.20;1.00
21849;DHT22;11089;49.852;19.700;2023-10-19T01:36:01;3.10;1.00
21849;DHT22;11089;49.852;19.700;2023-10-19T01:39:12;3.00;94.30
21849;DHT22;11089;49.852;19.700;2023-10-19T01:42:13;3.80;99.90
21849;DHT22;11089;49.852;19.700;2023-10-19T01:45:14;2.90;24.00
21849;DHT22;11089;49.852;19.700;2023-10-19T01:48:15;3.10;1.00
21849;DHT22;11089;49.852;19.700;2023-10-19T01:51:16;3.10;1.00
21849;DHT22;11089;49.852;19.700;2023-10-19T01:54:18;3.10;1.00
21849;DHT22;11089;49.852;19.700;2023-10-19T01:57:23;3.00;1.00
21849;DHT22;11089;49.852;19.700;2023-10-19T02:00:26;3.10;99.90
21849;DHT22;11089;49.852;19.700;2023-10-19T02:03:27;3.10;1.00
21849;DHT22;11089;49.852;19.700;2023-10-19T02:06:31;3.00;99.90
21849;DHT22;11089;49.852;19.700;2023-10-19T02:09:35;3.00;1.00
21849;DHT22;11089;49.852;19.700;2023-10-19T02:12:36;3.00;99.90
21849;DHT22;11089;49.852;19.700;2023-10-19T02:15:39;3.60;99.90
21849;DHT22;11089;49.852;19.700;2023-10-19T02:18:42;2.90;1.00
21849;DHT22;11089;49.852;19.700;2023-10-19T02:21:43;3.40;99.90
21849;DHT22;11089;49.852;19.700;2023-10-19T02:24:48;2.80;1.00
21849;DHT22;11089;49.852;19.700;2023-10-19T02:27:49;2.90;1.00
21849;DHT22;11089;49.852;19.700;2023-10-19T02:30:50;2.80;99.90
21849;DHT22;11089;49.852;19.700;2023-10-19T02:33:52;2.90;1.00
21849;DHT22;11089;49.852;19.700;2023-10-19T02:36:59;2.70;1.00
21849;DHT22;11089;49.852;19.700;2023-10-19T02:40:01;2.70;1.00
21849;DHT22;11089;49.852;19.700;2023-10-19T02:43:06;2.80;99.90
21849;DHT22;11089;49.852;19.700;2023-10-19T02:46:07;2.70;1.00
21849;DHT22;11089;49.852;19.700;2023-10-19T02:49:09;2.70;1.00
21849;DHT22;11089;49.852;19.700;2023-10-19T02:52:14;2.70;1.00
21849;DHT22;11089;49.852;19.700;2023-10-19T02:55:16;2.60;1.00
21849;DHT22;11089;49.852;19.700;2023-10-19T02:58:17;2.70;99.90
21849;DHT22;11089;49.852;19.700;2023-10-19T03:01:20;2.60;1.00
21849;DHT22;11089;49.852;19.700;2023-10-19T03:04:29;3.20;1.00
21849;DHT22;11089;49.852;19.700;2023-10-19T03:07:30;2.80;99.90
21849;DHT22;11089;49.852;19.700;2023-10-19T03:10:31;2.80;1.00
21849;DHT22;11089;49.852;19.700;2023-10-19T03:13:42;2.90;1.00
21849;DHT22;11089;49.852;19.700;2023-10-19T03:16:45;2.90;1.00
21849;DHT22;11089;49.852;19.700;2023-10-19T03:19:46;3.00;1.00
21849;DHT22;11089;49.852;19.700;2023-10-19T03:22:49;3.10;48.50
21849;DHT22;11089;49.852;19.700;2023-10-19T03:25:55;3.20;18.50
21849;DHT22;11089;49.852;19.700;2023-10-19T03:29:16;3.20;1.00
21849;DHT22;11089;49.852;19.700;2023-10-19T03:32:24;3.30;99.90
21849;DHT22;11089;49.852;19.700;2023-10-19T03:35:29;3.30;1.00
21849;DHT22;11089;49.852;19.700;2023-10-19T03:38:30;3.40;1.00
21849;DHT22;11089;49.852;19.700;2023-10-19T03:41:38;3.40;1.00
21849;DHT22;11089;49.852;19.700;2023-10-19T03:44:42;3.40;1.00
21849;DHT22;11089;49.852;19.700;2023-10-19T03:47:49;3.60;1.00
21849;DHT22;11089;49.852;19.700;2023-10-19T03:50:51;3.60;1.00
21849;DHT22;11089;49.852;19.700;2023-10-19T03:53:56;3.60;1.00
21849;DHT22;11089;49.852;19.700;2023-10-19T03:57:03;3.60;99.90
21849;DHT22;11089;49.852;19.700;2023-10-19T04:00:12;3.60;1.00
21849;DHT22;11089;49.852;19.700;2023-10-19T04:03:19;3.60;1.00
21849;DHT22;11089;49.852;19.700;2023-10-19T04:06:25;3.60;99.90
21849;DHT22;11089;49.852;19.700;2023-10-19T04:09:28;3.70;11.10
21849;DHT22;11089;49.852;19.700;2023-10-19T04:12:29;3.60;1.00
21849;DHT22;11089;49.852;19.700;2023-10-19T04:15:36;3.40;1.00
21849;DHT22;11089;49.852;19.700;2023-10-19T04:18:37;3.50;1.00
21849;DHT22;11089;49.852;19.700;2023-10-19T04:21:39;3.50;1.00
21849;DHT22;11089;49.852;19.700;2023-10-19T04:24:40;3.50;99.90
21849;DHT22;11089;49.852;19.700;2023-10-19T04:27:41;3.50;55.90
21849;DHT22;11089;49.852;19.700;2023-10-19T04:30:43;3.30;99.90
21849;DHT22;11089;49.852;19.700;2023-10-19T04:33:44;3.30;1.00
21849;DHT22;11089;49.852;19.700;2023-10-19T04:36:50;3.40;99.90
21849;DHT22;11089;49.852;19.700;2023-10-19T04:39:51;3.40;1.00
21849;DHT22;11089;49.852;19.700;2023-10-19T04:42:53;3.30;1.00
21849;DHT22;11089;49.852;19.700;2023-10-19T04:45:55;3.30;1.00
21849;DHT22;11089;49.852;19.700;2023-10-19T04:48:56;3.30;1.00
21849;DHT22;11089;49.852;19.700;2023-10-19T04:51:57;3.30;1.00
21849;DHT22;11089;49.852;19.700;2023-10-19T04:54:58;3.20;1.00
21849;DHT22;11089;49.852;19.700;2023-10-19T04:58:00;3.20;1.00
21849;DHT22;11089;49.852;19.700;2023-10-19T05:01:01;3.20;1.00
21849;DHT22;11089;49.852;19.700;2023-10-19T05:04:04;3.10;1.00
21849;DHT22;11089;49.852;19.700;2023-10-19T05:07:05;3.20;99.90
21849;DHT22;11089;49.852;19.700;2023-10-19T05:10:06;3.30;99.90
21849;DHT22;11089;49.852;19.700;2023-10-19T05:13:08;3.30;99.90
21849;DHT22;11089;49.852;19.700;2023-10-19T05:16:09;3.30;99.90
21849;DHT22;11089;49.852;19.700;2023-10-19T05:19:10;3.20;99.90
21849;DHT22;11089;49.852;19.700;2023-10-19T05:22:11;3.10;1.00
21849;DHT22;11089;49.852;19.700;2023-10-19T05:25:12;3.10;1.00
21849;DHT22;11089;49.852;19.700;2023-10-19T05:28:12;3.20;1.00
21849;DHT22;11089;49.852;19.700;2023-10-19T05:31:15;3.30;1.00
21849;DHT22;11089;49.852;19.700;2023-10-19T05:34:16;3.30;1.00
21849;DHT22;11089;49.852;19.700;2023-10-19T05:37:17;3.10;20.90
21849;DHT22;11089;49.852;19.700;2023-10-19T05:40:18;3.00;1.00
21849;DHT22;11089;49.852;19.700;2023-10-19T05:43:19;3.10;1.00
21849;DHT22;11089;49.852;19.700;2023-10-19T05:46:20;3.10;1.00
21849;DHT22;11089;49.852;19.700;2023-10-19T05:49:22;3.30;99.90
21849;DHT22;11089;49.852;19.700;2023-10-19T05:52:24;3.30;99.90
21849;DHT22;11089;49.852;19.700;2023-10-19T05:55:25;3.50;1.00
21849;DHT22;11089;49.852;19.700;2023-10-19T05:58:26;3.40;1.00
21849;DHT22;11089;49.852;19.700;2023-10-19T06:01:27;3.50;99.90
21849;DHT22;11089;49.852;19.700;2023-10-19T06:04:28;3.60;75.50
21849;DHT22;11089;49.852;19.700;2023-10-19T06:07:29;3.50;1.00
21849;DHT22;11089;49.852;19.700;2023-10-19T06:10:30;3.60;1.00
21849;DHT22;11089;49.852;19.700;2023-10-19T06:13:32;3.50;1.00
21849;DHT22;11089;49.852;19.700;2023-10-19T06:16:34;3.50;1.00
21849;DHT22;11089;49.852;19.700;2023-10-19T06:19:34;3.40;1.00
21849;DHT22;11089;49.852;19.700;2023-10-19T06:22:36;3.40;1.00
21849;DHT22;11089;49.852;19.700;2023-10-19T06:25:36;3.50;1.00
21849;DHT22;11089;49.852;19.700;2023-10-19T06:28:39;3.40;1.00
21849;DHT22;11089;49.852;19.700;2023-10-19T06:31:41;3.50;54.80
21849;DHT22;11089;49.852;19.700;2023-10-19T06:34:43;3.60;1.00
21849;DHT22;11089;49.852;19.700;2023-10-19T06:37:44;3.50;1.00
21849;DHT22;11089;49.852;19.700;2023-10-19T06:40:46;3.50;13.70
21849;DHT22;11089;49.852;19.700;2023-10-19T06:43:48;3.70;1.00
21849;DHT22;11089;49.852;19.700;2023-10-19T06:46:48;3.90;99.90
21849;DHT22;11089;49.852;19.700;2023-10-19T06:49:49;4.00;1.00
21849;DHT22;11089;49.852;19.700;2023-10-19T06:52:51;4.10;99.90
21849;DHT22;11089;49.852;19.700;2023-10-19T06:55:52;4.20;1.00
21849;DHT22;11089;49.852;19.700;2023-10-19T06:58:53;4.40;99.90
21849;DHT22;11089;49.852;19.700;2023-10-19T07:01:54;4.60;1.00
21849;DHT22;11089;49.852;19.700;2023-10-19T07:04:55;4.80;59.40
21849;DHT22;11089;49.852;19.700;2023-10-19T07:07:56;4.90;97.80
21849;DHT22;11089;49.852;19.700;2023-10-19T07:10:57;5.10;1.00
21849;DHT22;11089;49.852;19.700;2023-10-19T07:13:58;5.20;99.90
21849;DHT22;11089;49.852;19.700;2023-10-19T07:16:59;5.40;99.90
21849;DHT22;11089;49.852;19.700;2023-10-19T07:20:00;5.50;1.00
21849;DHT22;11089;49.852;19.700;2023-10-19T07:23:03;5.50;99.90
21849;DHT22;11089;49.852;19.700;2023-10-19T07:26:17;5.70;99.90
21849;DHT22;11089;49.852;19.700;2023-10-19T07:29:20;6.00;99.90
21849;DHT22;11089;49.852;19.700;2023-10-19T07:32:21;6.40;99.90
21849;DHT22;11089;49.852;19.700;2023-10-19T07:35:22;6.70;1.00
21849;DHT22;11089;49.852;19.700;2023-10-19T07:38:24;7.40;99.90
21849;DHT22;11089;49.852;19.700;2023-10-19T07:41:26;8.60;1.00
21849;DHT22;11089;49.852;19.700;2023-10-19T07:44:29;8.90;70.10
21849;DHT22;11089;49.852;19.700;2023-10-19T07:47:30;9.00;99.90
21849;DHT22;11089;49.852;19.700;2023-10-19T07:50:37;9.30;1.00
21849;DHT22;11089;49.852;19.700;2023-10-19T07:53:38;9.90;1.00
21849;DHT22;11089;49.852;19.700;2023-10-19T07:56:39;10.00;1.00
21849;DHT22;11089;49.852;19.700;2023-10-19T07:59:40;9.90;1.00
21849;DHT22;11089;49.852;19.700;2023-10-19T08:02:41;9.80;1.00
21849;DHT22;11089;49.852;19.700;2023-10-19T08:05:42;9.70;1.00
21849;DHT22;11089;49.852;19.700;2023-10-19T08:08:43;9.50;1.00
21849;DHT22;11089;49.852;19.700;2023-10-19T08:11:44;9.60;1.00
21849;DHT22;11089;49.852;19.700;2023-10-19T08:14:46;9.70;1.00
21849;DHT22;11089;49.852;19.700;2023-10-19T08:17:49;10.10;1.00
21849;DHT22;11089;49.852;19.700;2023-10-19T08:20:51;10.40;99.90
21849;DHT22;11089;49.852;19.700;2023-10-19T08:23:53;10.20;1.00
21849;DHT22;11089;49.852;19.700;2023-10-19T08:26:54;9.90;1.00
21849;DHT22;11089;49.852;19.700;2023-10-19T08:29:55;9.90;1.00
21849;DHT22;11089;49.852;19.700;2023-10-19T08:32:56;10.20;55.90
21849;DHT22;11089;49.852;19.700;2023-10-19T08:35:58;10.40;1.00
21849;DHT22;11089;49.852;19.700;2023-10-19T08:39:00;10.60;1.00
21849;DHT22;11089;49.852;19.700;2023-10-19T08:42:06;10.90;1.00
21849;DHT22;11089;49.852;19.700;2023-10-19T08:45:08;11.50;99.90
21849;DHT22;11089;49.852;19.700;2023-10-19T08:48:10;11.60;99.90
21849;DHT22;11089;49.852;19.700;2023-10-19T08:51:11;11.20;99.90
21849;DHT22;11089;49.852;19.700;2023-10-19T08:54:14;10.90;99.90
21849;DHT22;11089;49.852;19.700;2023-10-19T08:57:15;10.80;99.90
21849;DHT22;11089;49.852;19.700;2023-10-19T09:00:18;10.80;1.00
21849;DHT22;11089;49.852;19.700;2023-10-19T09:03:19;10.80;99.90
21849;DHT22;11089;49.852;19.700;2023-10-19T09:06:20;10.90;99.90
21849;DHT22;11089;49.852;19.700;2023-10-19T09:09:21;10.80;99.90
21849;DHT22;11089;49.852;19.700;2023-10-19T09:12:25;10.60;99.90
21849;DHT22;11089;49.852;19.700;2023-10-19T09:15:28;10.60;99.90
21849;DHT22;11089;49.852;19.700;2023-10-19T09:18:31;10.40;99.90
21849;DHT22;11089;49.852;19.700;2023-10-19T09:21:32;10.40;99.90
21849;DHT22;11089;49.852;19.700;2023-10-19T09:24:35;10.30;99.90
21849;DHT22;11089;49.852;19.700;2023-10-19T09:27:36;10.30;1.00
21849;DHT22;11089;49.852;19.700;2023-10-19T09:30:37;10.20;1.00
21849;DHT22;11089;49.852;19.700;2023-10-19T09:33:46;10.20;1.00
21849;DHT22;11089;49.852;19.700;2023-10-19T09:36:48;10.30;1.00
21849;DHT22;11089;49.852;19.700;2023-10-19T09:39:49;10.30;1.00
21849;DHT22;11089;49.852;19.700;2023-10-19T09:42:53;10.10;1.00
21849;DHT22;11089;49.852;19.700;2023-10-19T09:45:57;10.10;1.00
21849;DHT22;11089;49.852;19.700;2023-10-19T09:49:00;10.10;1.00
21849;DHT22;11089;49.852;19.700;2023-10-19T09:52:02;10.20;1.00
21849;DHT22;11089;49.852;19.700;2023-10-19T09:58:25;10.20;99.90
21849;DHT22;11089;49.852;19.700;2023-10-19T10:01:27;10.20;87.20
21849;DHT22;11089;49.852;19.700;2023-10-19T10:04:33;10.20;1.00
21849;DHT22;11089;49.852;19.700;2023-10-19T10:07:36;10.20;1.00
21849;DHT22;11089;49.852;19.700;2023-10-19T10:10:36;10.20;1.00
21849;DHT22;11089;49.852;19.700;2023-10-19T10:13:37;10.20;1.00
21849;DHT22;11089;49.852;19.700;2023-10-19T10:16:38;10.20;1.00
21849;DHT22;11089;49.852;19.700;2023-10-19T10:19:39;10.30;1.00
21849;DHT22;11089;49.852;19.700;2023-10-19T10:22:41;10.40;36.40
21849;DHT22;11089;49.852;19.700;2023-10-19T10:25:45;10.40;99.90
21849;DHT22;11089;49.852;19.700;2023-10-19T10:32:10;10.50;56.70
21849;DHT22;11089;49.852;19.700;2023-10-19T10:38:37;10.60;1.00
21849;DHT22;11089;49.852;19.700;2023-10-19T10:41:38;10.60;1.00
21849;DHT22;11089;49.852;19.700;2023-10-19T10:44:44;10.50;1.00
21849;DHT22;11089;49.852;19.700;2023-10-19T10:47:46;10.50;1.00
21849;DHT22;11089;49.852;19.700;2023-10-19T10:50:47;10.60;1.00
21849;DHT22;11089;49.852;19.700;2023-10-19T10:53:49;10.60;1.00
21849;DHT22;11089;49.852;19.700;2023-10-19T10:56:50;10.70;99.90
21849;DHT22;11089;49.852;19.700;2023-10-19T11:00:05;10.70;1.00
21849;DHT22;11089;49.852;19.700;2023-10-19T11:03:20;10.60;99.90
21849;DHT22;11089;49.852;19.700;2023-10-19T11:06:22;10.60;1.00
21849;DHT22;11089;49.852;19.700;2023-10-19T11:09:24;10.60;99.90
21849;DHT22;11089;49.852;19.700;2023-10-19T11:12:25;10.60;1.00
21849;DHT22;11089;49.852;19.700;2023-10-19T11:15:26;10.50;1.00
21849;DHT22;11089;49.852;19.700;2023-10-19T11:18:34;10.60;99.90
21849;DHT22;11089;49.852;19.700;2023-10-19T11:21:52;10.70;99.90
21849;DHT22;11089;49.852;19.700;2023-10-19T11:24:54;10.60;86.50
21849;DHT22;11089;49.852;19.700;2023-10-19T11:27:59;10.70;99.90
21849;DHT22;11089;49.852;19.700;2023-10-19T11:34:16;10.80;99.90
21849;DHT22;11089;49.852;19.700;2023-10-19T11:37:21;10.70;1.00
21849;DHT22;11089;49.852;19.700;2023-10-19T11:40:23;10.80;1.00
21849;DHT22;11089;49.852;19.700;2023-10-19T11:43:24;10.80;1.00
21849;DHT22;11089;49.852;19.700;2023-10-19T11:46:25;10.80;99.90
21849;DHT22;11089;49.852;19.700;2023-10-19T11:49:26;10.80;99.90
21849;DHT22;11089;49.852;19.700;2023-10-19T11:52:27;10.90;1.00
21849;DHT22;11089;49.852;19.700;2023-10-19T11:55:30;11.20;1.00
21849;DHT22;11089;49.852;19.700;2023-10-19T11:58:32;11.30;1.00
21849;DHT22;11089;49.852;19.700;2023-10-19T12:01:35;11.40;1.00
21849;DHT22;11089;49.852;19.700;2023-10-19T12:04:36;11.40;1.00
21849;DHT22;11089;49.852;19.700;2023-10-19T12:07:37;11.50;99.90
21849;DHT22;11089;49.852;19.700;2023-10-19T12:10:38;11.50;1.00
21849;DHT22;11089;49.852;19.700;2023-10-19T12:13:39;11.60;10.90
21849;DHT22;11089;49.852;19.700;2023-10-19T12:16:41;11.70;1.00
21849;DHT22;11089;49.852;19.700;2023-10-19T12:19:41;11.80;1.00
21849;DHT22;11089;49.852;19.700;2023-10-19T12:22:42;11.80;91.20
21849;DHT22;11089;49.852;19.700;2023-10-19T12:25:43;11.80;99.90
21849;DHT22;11089;49.852;19.700;2023-10-19T12:28:44;11.80;99.90
21849;DHT22;11089;49.852;19.700;2023-10-19T12:31:48;11.90;5.70
21849;DHT22;11089;49.852;19.700;2023-10-19T12:34:49;11.90;1.00
21849;DHT22;11089;49.852;19.700;2023-10-19T12:37:58;11.80;1.00
21849;DHT22;11089;49.852;19.700;2023-10-19T12:40:59;11.90;99.90
21849;DHT22;11089;49.852;19.700;2023-10-19T12:44:00;11.80;99.90
21849;DHT22;11089;49.852;19.700;2023-10-19T12:47:10;11.80;99.90
21849;DHT22;11089;49.852;19.700;2023-10-19T12:50:14;11.80;1.00
21849;DHT22;11089;49.852;19.700;2023-10-19T12:53:16;11.90;99.90
21849;DHT22;11089;49.852;19.700;2023-10-19T12:56:18;11.80;99.90
21849;DHT22;11089;49.852;19.700;2023-10-19T12:59:19;11.80;1.00
21849;DHT22;11089;49.852;19.700;2023-10-19T13:02:20;11.80;1.00
21849;DHT22;11089;49.852;19.700;2023-10-19T13:05:21;11.90;1.00
21849;DHT22;11089;49.852;19.700;2023-10-19T13:08:22;11.80;1.00
21849;DHT22;11089;49.852;19.700;2023-10-19T13:11:23;11.80;1.00
21849;DHT22;11089;49.852;19.700;2023-10-19T13:14:24;11.80;1.00
21849;DHT22;11089;49.852;19.700;2023-10-19T13:17:25;11.70;1.00
21849;DHT22;11089;49.852;19.700;2023-10-19T13:20:27;11.70;1.00
21849;DHT22;11089;49.852;19.700;2023-10-19T13:23:34;11.70;1.00
21849;DHT22;11089;49.852;19.700;2023-10-19T13:26:36;11.80;99.90
21849;DHT22;11089;49.852;19.700;2023-10-19T13:29:39;11.80;1.00
21849;DHT22;11089;49.852;19.700;2023-10-19T13:32:42;11.80;1.00
21849;DHT22;11089;49.852;19.700;2023-10-19T13:35:44;11.80;1.00
21849;DHT22;11089;49.852;19.700;2023-10-19T13:38:45;11.80;1.00
21849;DHT22;11089;49.852;19.700;2023-10-19T13:41:46;11.80;1.00
21849;DHT22;11089;49.852;19.700;2023-10-19T13:44:47;11.80;1.00
21849;DHT22;11089;49.852;19.700;2023-10-19T13:47:48;11.80;1.00
21849;DHT22;11089;49.852;19.700;2023-10-19T13:50:49;11.70;99.90
21849;DHT22;11089;49.852;19.700;2023-10-19T13:53:50;11.70;99.90
21849;DHT22;11089;49.852;19.700;2023-10-19T13:56:51;11.80;99.90
21849;DHT22;11089;49.852;19.700;2023-10-19T13:59:52;11.70;99.90
21849;DHT22;11089;49.852;19.700;2023-10-19T14:02:54;11.80;99.90
21849;DHT22;11089;49.852;19.700;2023-10-19T14:05:54;11.80;91.70
21849;DHT22;11089;49.852;19.700;2023-10-19T14:08:56;11.80;99.90
21849;DHT22;11089;49.852;19.700;2023-10-19T14:11:57;11.80;99.90
21849;DHT22;11089;49.852;19.700;2023-10-19T14:14:58;11.70;1.00
21849;DHT22;11089;49.852;19.700;2023-10-19T14:18:00;11.70;99.90
21849;DHT22;11089;49.852;19.700;2023-10-19T14:21:09;11.70;99.90
21849;DHT22;11089;49.852;19.700;2023-10-19T14:24:11;11.70;1.00
21849;DHT22;11089;49.852;19.700;2023-10-19T14:27:12;11.60;1.00
21849;DHT22;11089;49.852;19.700;2023-10-19T14:30:16;11.60;99.90
21849;DHT22;11089;49.852;19.700;2023-10-19T14:33:17;11.50;30.00
21849;DHT22;11089;49.852;19.700;2023-10-19T14:36:19;11.40;1.00
21849;DHT22;11089;49.852;19.700;2023-10-19T14:39:20;11.40;99.90
21849;DHT22;11089;49.852;19.700;2023-10-19T14:42:21;11.40;99.90
21849;DHT22;11089;49.852;19.700;2023-10-19T14:45:25;11.40;1.00
21849;DHT22;11089;49.852;19.700;2023-10-19T14:48:26;11.40;1.00
21849;DHT22;11089;49.852;19.700;2023-10-19T14:51:27;11.40;99.90
21849;DHT22;11089;49.852;19.700;2023-10-19T14:54:28;11.40;99.90
21849;DHT22;11089;49.852;19.700;2023-10-19T14:57:29;11.30;1.00
21849;DHT22;11089;49.852;19.700;2023-10-19T15:00:30;11.40;22.90
21849;DHT22;11089;49.852;19.700;2023-10-19T15:03:45;11.30;99.90
21849;DHT22;11089;49.852;19.700;2023-10-19T15:06:45;11.30;2.10
21849;DHT22;11089;49.852;19.700;2023-10-19T15:09:46;11.30;26.60
21849;DHT22;11089;49.852;19.700;2023-10-19T15:12:48;11.30;99.90
21849;DHT22;11089;49.852;19.700;2023-10-19T15:15:49;11.20;99.90
21849;DHT22;11089;49.852;19.700;2023-10-19T15:18:50;11.20;99.90
21849;DHT22;11089;49.852;19.700;2023-10-19T15:21:51;11.10;99.90
21849;DHT22;11089;49.852;19.700;2023-10-19T15:24:52;11.10;1.00
21849;DHT22;11089;49.852;19.700;2023-10-19T15:27:53;11.10;99.90
21849;DHT22;11089;49.852;19.700;2023-10-19T15:30:54;11.10;1.00
21849;DHT22;11089;49.852;19.700;2023-10-19T15:33:55;11.10;1.00
21849;DHT22;11089;49.852;19.700;2023-10-19T15:36:56;11.00;99.90
21849;DHT22;11089;49.852;19.700;2023-10-19T15:39:57;10.90;1.00
21849;DHT22;11089;49.852;19.700;2023-10-19T15:42:58;10.80;1.00
21849;DHT22;11089;49.852;19.700;2023-10-19T15:46:00;10.90;1.00
21849;DHT22;11089;49.852;19.700;2023-10-19T15:49:03;10.90;1.00
21849;DHT22;11089;49.852;19.700;2023-10-19T15:52:04;10.80;99.90
21849;DHT22;11089;49.852;19.700;2023-10-19T15:55:05;10.70;1.00
21849;DHT22;11089;49.852;19.700;2023-10-19T15:58:06;10.70;1.00
21849;DHT22;11089;49.852;19.700;2023-10-19T16:01:09;10.70;99.90
21849;DHT22;11089;49.852;19.700;2023-10-19T16:04:10;10.70;99.90
21849;DHT22;11089;49.852;19.700;2023-10-19T16:07:14;10.60;99.90
21849;DHT22;11089;49.852;19.700;2023-10-19T16:10:18;10.60;1.00
21849;DHT22;11089;49.852;19.700;2023-10-19T16:13:20;10.60;1.00
21849;DHT22;11089;49.852;19.700;2023-10-19T16:16:21;10.50;1.00
21849;DHT22;11089;49.852;19.700;2023-10-19T16:19:22;10.60;1.00
21849;DHT22;11089;49.852;19.700;2023-10-19T16:22:26;10.50;99.90
21849;DHT22;11089;49.852;19.700;2023-10-19T16:25:28;10.50;1.00
21849;DHT22;11089;49.852;19.700;2023-10-19T16:28:29;10.50;1.00
21849;DHT22;11089;49.852;19.700;2023-10-19T16:31:31;10.50;99.90
21849;DHT22;11089;49.852;19.700;2023-10-19T16:34:32;10.50;1.00
21849;DHT22;11089;49.852;19.700;2023-10-19T16:37:35;10.30;1.00
21849;DHT22;11089;49.852;19.700;2023-10-19T16:40:35;10.20;1.00
21849;DHT22;11089;49.852;19.700;2023-10-19T16:43:37;10.20;1.00
21849;DHT22;11089;49.852;19.700;2023-10-19T16:46:38;10.20;99.90
21849;DHT22;11089;49.852;19.700;2023-10-19T16:49:39;10.20;1.00
21849;DHT22;11089;49.852;19.700;2023-10-19T16:52:40;10.20;3.90
21849;DHT22;11089;49.852;19.700;2023-10-19T16:55:42;10.10;1.00
21849;DHT22;11089;49.852;19.700;2023-10-19T16:58:43;10.20;1.00
21849;DHT22;11089;49.852;19.700;2023-10-19T17:01:44;10.20;1.00
21849;DHT22;11089;49.852;19.700;2023-10-19T17:04:48;10.30;1.00
21849;DHT22;11089;49.852;19.700;2023-10-19T17:07:49;10.20;99.90
21849;DHT22;11089;49.852;19.700;2023-10-19T17:10:50;10.20;1.00
21849;DHT22;11089;49.852;19.700;2023-10-19T17:13:52;10.30;1.00
21849;DHT22;11089;49.852;19.700;2023-10-19T17:16:56;10.20;1.00
21849;DHT22;11089;49.852;19.700;2023-10-19T17:19:57;10.20;1.00
21849;DHT22;11089;49.852;19.700;2023-10-19T17:22:58;10.10;1.00
21849;DHT22;11089;49.852;19.700;2023-10-19T17:26:00;10.10;1.00
21849;DHT22;11089;49.852;19.700;2023-10-19T17:29:01;10.10;1.00
21849;DHT22;11089;49.852;19.700;2023-10-19T17:32:02;10.10;15.90
21849;DHT22;11089;49.852;19.700;2023-10-19T17:35:04;10.10;1.00
21849;DHT22;11089;49.852;19.700;2023-10-19T17:38:05;10.10;99.90
21849;DHT22;11089;49.852;19.700;2023-10-19T17:41:07;10.10;99.90
21849;DHT22;11089;49.852;19.700;2023-10-19T17:44:08;10.20;1.00
21849;DHT22;11089;49.852;19.700;2023-10-19T17:47:10;10.20;31.70
21849;DHT22;11089;49.852;19.700;2023-10-19T17:50:11;10.20;1.00
21849;DHT22;11089;49.852;19.700;2023-10-19T17:53:12;10.10;1.00
21849;DHT22;11089;49.852;19.700;2023-10-19T17:56:13;10.10;1.00
21849;DHT22;11089;49.852;19.700;2023-10-19T17:59:14;10.10;1.00
21849;DHT22;11089;49.852;19.700;2023-10-19T18:02:15;10.10;1.00
21849;DHT22;11089;49.852;19.700;2023-10-19T18:05:17;10.10;1.00
21849;DHT22;11089;49.852;19.700;2023-10-19T18:08:18;10.10;1.00
21849;DHT22;11089;49.852;19.700;2023-10-19T18:11:19;10.00;99.90
21849;DHT22;11089;49.852;19.700;2023-10-19T18:14:20;10.10;99.90
21849;DHT22;11089;49.852;19.700;2023-10-19T18:17:21;10.00;99.90
21849;DHT22;11089;49.852;19.700;2023-10-19T18:20:24;10.00;99.90
21849;DHT22;11089;49.852;19.700;2023-10-19T18:23:24;10.00;99.90
21849;DHT22;11089;49.852;19.700;2023-10-19T18:26:25;10.00;99.90
21849;DHT22;11089;49.852;19.700;2023-10-19T18:29:27;10.10;99.90
21849;DHT22;11089;49.852;19.700;2023-10-19T18:32:31;10.00;99.90
21849;DHT22;11089;49.852;19.700;2023-10-19T18:35:32;9.90;99.90
21849;DHT22;11089;49.852;19.700;2023-10-19T18:38:33;9.90;99.90
21849;DHT22;11089;49.852;19.700;2023-10-19T18:41:37;9.90;99.90
21849;DHT22;11089;49.852;19.700;2023-10-19T18:44:38;9.90;99.90
21849;DHT22;11089;49.852;19.700;2023-10-19T18:47:39;9.90;99.90
21849;DHT22;11089;49.852;19.700;2023-10-19T18:50:41;9.90;99.90
21849;DHT22;11089;49.852;19.700;2023-10-19T18:53:42;9.80;99.90
21849;DHT22;11089;49.852;19.700;2023-10-19T18:56:43;9.90;99.90
21849;DHT22;11089;49.852;19.700;2023-10-19T18:59:44;9.80;99.90
21849;DHT22;11089;49.852;19.700;2023-10-19T19:02:45;9.80;99.90
21849;DHT22;11089;49.852;19.700;2023-10-19T19:05:46;9.80;99.90
21849;DHT22;11089;49.852;19.700;2023-10-19T19:08:47;9.90;99.90
21849;DHT22;11089;49.852;19.700;2023-10-19T19:11:48;9.80;99.90
21849;DHT22;11089;49.852;19.700;2023-10-19T19:14:49;9.90;25.00
21849;DHT22;11089;49.852;19.700;2023-10-19T19:17:51;9.90;99.90
21849;DHT22;11089;49.852;19.700;2023-10-19T19:20:53;10.00;99.90
21849;DHT22;11089;49.852;19.700;2023-10-19T19:23:58;9.90;1.00
21849;DHT22;11089;49.852;19.700;2023-10-19T19:26:59;9.90;99.90